Time;durP1;ratioP1;P1;durP2;ratioP2;P2;SDS_P1;SDS_P2;PMS_P1;PMS_P2;Temp;Humidity;BMP_temperature;BMP_pressure;BME280_temperature;BME280_humidity;BME280_pressure;Samples;Min_cycle;Max_cycle;Signal;HPM_P1;HPM_P2
2022/08/02 00:02:00;;;;;;;8.50;3.60;;;;;;;15.53;92.22;99897.79;105324;1271;73409;-74
2022/08/02 00:04:48;;;;;;;7.60;3.30;;;;;;;15.55;92.32;99897.20;104928;1271;67867;-75
2022/08/02 00:07:37;;;;;;;7.70;3.30;;;;;;;15.56;92.27;99899.06;104823;1272;74515;-74
2022/08/02 00:10:28;;;;;;;9.00;3.20;;;;;;;15.57;92.34;99896.00;105155;1271;60228;-74
2022/08/02 00:13:17;;;;;;;8.50;3.30;;;;;;;15.55;92.53;99888.48;105150;1273;60628;-74
2022/08/02 00:16:05;;;;;;;7.80;3.60;;;;;;;15.54;93.06;99887.70;104969;1271;72797;-73
2022/08/02 00:18:53;;;;;;;8.00;3.80;;;;;;;15.51;93.13;99887.79;104900;1273;68060;-75
2022/08/02 00:21:41;;;;;;;7.70;3.70;;;;;;;15.49;93.28;99889.38;104876;1273;74393;-74
2022/08/02 00:24:29;;;;;;;9.30;3.80;;;;;;;15.47;93.26;99887.61;104858;1273;59897;-75
2022/08/02 00:27:17;;;;;;;9.00;4.00;;;;;;;15.46;93.61;99887.70;104817;1271;59737;-74
2022/08/02 00:30:06;;;;;;;9.70;4.10;;;;;;;15.44;93.90;99889.71;104938;1271;74786;-77
2022/08/02 00:32:54;;;;;;;9.00;3.60;;;;;;;15.42;94.36;99892.97;105209;1273;68142;-74
2022/08/02 00:35:42;;;;;;;8.50;3.80;;;;;;;15.40;94.84;99896.21;105101;1272;73339;-74
2022/08/02 00:38:30;;;;;;;7.80;3.60;;;;;;;15.37;95.38;99898.30;105277;1271;59761;-75
2022/08/02 00:41:20;;;;;;;10.50;4.00;;;;;;;15.35;95.54;99905.45;105135;1271;60493;-74
2022/08/02 00:44:08;;;;;;;8.60;3.80;;;;;;;15.33;95.52;99903.52;104950;1271;73276;-74
2022/08/02 00:47:00;;;;;;;8.30;3.90;;;;;;;15.31;95.93;99901.54;104925;1274;67916;-73
2022/08/02 00:49:48;;;;;;;9.60;4.00;;;;;;;15.30;96.39;99902.34;104973;1272;72933;-72
2022/08/02 00:52:36;;;;;;;10.60;4.70;;;;;;;15.34;96.90;99905.04;105128;1271;59753;-73
2022/08/02 00:55:25;;;;;;;10.00;4.30;;;;;;;15.38;96.92;99904.13;104993;1271;59594;-73
2022/08/02 00:58:17;;;;;;;9.40;4.50;;;;;;;15.42;97.47;99906.88;105105;1274;73279;-74
2022/08/02 01:01:05;;;;;;;11.10;4.20;;;;;;;15.47;97.13;99907.83;104856;1274;67099;-75
2022/08/02 01:03:53;;;;;;;8.90;4.40;;;;;;;15.51;97.45;99906.33;104952;1273;74460;-74
2022/08/02 01:06:42;;;;;;;9.10;4.00;;;;;;;15.56;97.72;99903.77;104984;1271;60791;-75
2022/08/02 01:09:30;;;;;;;9.30;5.00;;;;;;;15.56;97.77;99898.89;105079;1271;62081;-74
2022/08/02 01:12:18;;;;;;;11.20;5.10;;;;;;;15.56;97.60;99898.36;105192;1271;72965;-73
2022/08/02 01:15:11;;;;;;;10.00;4.70;;;;;;;15.56;98.24;99899.31;105097;1274;67763;-74
2022/08/02 01:18:14;;;;;;;10.60;4.30;;;;;;;15.53;97.96;99897.41;104883;1271;71662;-73
2022/08/02 01:21:27;;;;;;;10.50;4.80;;;;;;;15.50;98.27;99901.86;104830;1272;59769;-74
2022/08/02 01:24:34;;;;;;;9.80;5.10;;;;;;;15.47;98.11;99901.42;105088;1273;59714;-76
2022/08/02 01:28:05;;;;;;;9.20;4.70;;;;;;;15.43;98.42;99902.20;105137;1274;71840;-75
2022/08/02 01:31:11;;;;;;;11.00;4.70;;;;;;;15.39;98.75;99900.60;105249;1271;68157;-73
2022/08/02 01:34:41;;;;;;;11.30;5.10;;;;;;;15.37;98.94;99901.37;105127;1271;73621;-76
2022/08/02 01:37:36;;;;;;;10.70;5.20;;;;;;;15.34;99.43;99904.31;104957;1271;60838;-74
2022/08/02 01:40:33;;;;;;;10.00;4.90;;;;;;;15.31;99.56;99905.30;104785;1273;59736;-73
2022/08/02 01:43:22;;;;;;;9.10;4.80;;;;;;;15.30;99.98;99904.20;105316;1271;72019;-73
2022/08/02 01:46:13;;;;;;;10.70;4.60;;;;;;;15.27;100.00;99906.21;104992;1271;67756;-72
2022/08/02 01:49:08;;;;;;;9.30;5.20;;;;;;;15.23;100.00;99907.52;105122;1271;73373;-71
2022/08/02 01:55:22;;;;;;;10.50;4.60;;;;;;;15.17;100.00;99912.86;104958;1271;59687;-73
2022/08/02 01:58:25;;;;;;;10.80;4.90;;;;;;;15.13;100.00;99915.17;105185;1271;73264;-72
2022/08/02 02:01:16;;;;;;;11.40;4.90;;;;;;;15.10;100.00;99912.09;105024;1271;68214;-72
2022/08/02 02:04:08;;;;;;;10.80;5.00;;;;;;;15.08;100.00;99913.52;104934;1273;74419;-71
2022/08/02 02:06:56;;;;;;;12.30;5.10;;;;;;;15.04;100.00;99911.40;104981;1271;61514;-72
2022/08/02 02:09:45;;;;;;;10.70;5.70;;;;;;;15.04;100.00;99911.83;105172;1271;59997;-71
2022/08/02 02:12:39;;;;;;;10.80;4.80;;;;;;;15.02;100.00;99911.10;105068;1273;72346;-71
2022/08/02 02:15:29;;;;;;;9.00;4.30;;;;;;;15.00;100.00;99914.48;104970;1274;68099;-72
2022/08/02 02:18:23;;;;;;;10.20;4.30;;;;;;;14.98;100.00;99916.05;104896;1274;74570;-73
2022/08/02 02:21:11;;;;;;;12.10;4.80;;;;;;;14.98;100.00;99915.52;105014;1272;60195;-73
2022/08/02 02:23:59;;;;;;;10.50;3.90;;;;;;;14.97;100.00;99919.54;105243;1271;60657;-74
2022/08/02 02:26:50;;;;;;;10.90;4.30;;;;;;;14.97;100.00;99920.85;104880;1274;74764;-73
2022/08/02 02:29:45;;;;;;;10.70;4.40;;;;;;;14.96;100.00;99920.76;105147;1271;68025;-73
2022/08/02 02:32:35;;;;;;;11.00;3.90;;;;;;;14.95;100.00;99925.64;105187;1272;74535;-73
2022/08/02 02:35:28;;;;;;;9.00;3.80;;;;;;;14.95;100.00;99927.65;104960;1271;59996;-73
2022/08/02 02:38:19;;;;;;;9.60;3.30;;;;;;;14.94;100.00;99927.40;104805;1273;59810;-74
2022/08/02 02:41:09;;;;;;;11.10;3.70;;;;;;;14.94;100.00;99927.06;104946;1274;73236;-73
2022/08/02 02:44:02;;;;;;;11.60;3.50;;;;;;;14.94;100.00;99930.90;105155;1272;69530;-74
2022/08/02 02:46:54;;;;;;;12.20;3.50;;;;;;;14.95;100.00;99933.71;104883;1273;74451;-73
2022/08/02 02:49:45;;;;;;;10.60;3.40;;;;;;;14.94;100.00;99936.09;105179;1272;61100;-71
2022/08/02 02:52:34;;;;;;;10.70;4.30;;;;;;;14.93;100.00;99935.48;104853;1273;59669;-74
2022/08/02 02:55:23;;;;;;;11.30;3.40;;;;;;;14.92;100.00;99937.19;105087;1271;73252;-74
2022/08/02 02:58:12;;;;;;;11.30;3.80;;;;;;;14.92;100.00;99940.09;104933;1271;66755;-73
2022/08/02 03:04:28;;;;;;;11.90;3.30;;;;;;;14.89;100.00;99941.05;105112;1271;59900;-73
2022/08/02 03:07:37;;;;;;;9.40;3.20;;;;;;;14.90;100.00;99942.13;104935;1271;60516;-73
2022/08/02 03:10:26;;;;;;;9.50;3.20;;;;;;;14.89;100.00;99940.77;104801;1271;73038;-75
2022/08/02 03:13:16;;;;;;;9.90;3.40;;;;;;;14.89;100.00;99943.95;104964;1271;68519;-73
2022/08/02 03:16:06;;;;;;;10.30;3.20;;;;;;;14.90;100.00;99948.36;105062;1271;73992;-73
2022/08/02 03:18:56;;;;;;;11.80;3.40;;;;;;;14.91;100.00;99951.08;104904;1271;60152;-72
2022/08/02 03:21:47;;;;;;;10.00;3.10;;;;;;;14.92;100.00;99948.08;105114;1271;61613;-73
2022/08/02 03:24:43;;;;;;;9.80;2.90;;;;;;;14.93;100.00;99952.67;105179;1271;73352;-73
2022/08/02 03:27:31;;;;;;;10.70;3.10;;;;;;;14.93;100.00;99950.00;104919;1271;66757;-72
2022/08/02 03:30:23;;;;;;;11.70;3.30;;;;;;;14.94;100.00;99952.57;105310;1271;74398;-76
2022/08/02 03:33:11;;;;;;;13.60;3.20;;;;;;;14.95;100.00;99958.36;106298;1271;59833;-74
2022/08/02 03:36:11;;;;;;;11.00;3.10;;;;;;;14.96;100.00;99962.19;105072;1271;60280;-74
2022/08/02 03:39:01;;;;;;;9.70;2.90;;;;;;;14.98;100.00;99960.16;104964;1272;72039;-75
2022/08/02 03:41:50;;;;;;;14.30;3.30;;;;;;;15.00;100.00;99961.45;105278;1271;66963;-73
2022/08/02 03:44:39;;;;;;;10.50;3.10;;;;;;;15.02;100.00;99963.45;104892;1273;72892;-74
2022/08/02 03:47:27;;;;;;;10.80;3.20;;;;;;;15.04;100.00;99968.23;104882;1271;60361;-73
2022/08/02 03:50:17;;;;;;;10.40;3.60;;;;;;;15.05;99.88;99969.16;105039;1271;60692;-75
2022/08/02 03:53:06;;;;;;;10.90;2.90;;;;;;;15.06;99.90;99971.42;104912;1273;74801;-75
2022/08/02 03:56:09;;;;;;;12.80;3.50;;;;;;;15.06;99.75;99974.11;105060;1271;68024;-73
2022/08/02 03:59:12;;;;;;;12.30;3.20;;;;;;;15.07;99.76;99976.20;105022;1271;71625;-76
2022/08/02 04:02:00;;;;;;;10.40;3.30;;;;;;;15.08;99.47;99975.65;104987;1271;59950;-74
2022/08/02 04:04:49;;;;;;;10.80;3.10;;;;;;;15.10;99.48;99977.11;105218;1271;60224;-72
2022/08/02 04:07:38;;;;;;;11.20;3.10;;;;;;;15.13;99.37;99975.92;105066;1271;73427;-75
2022/08/02 04:13:53;;;;;;;9.50;3.40;;;;;;;15.23;99.25;99985.83;105795;1271;72884;-74
2022/08/02 04:17:12;;;;;;;7.80;2.60;;;;;;;15.28;98.73;99991.54;104885;1271;61584;-74
2022/08/02 04:20:26;;;;;;;8.80;2.50;;;;;;;15.29;98.38;99993.80;105019;1271;59644;-75
2022/08/02 04:23:16;;;;;;;9.90;2.90;;;;;;;15.30;98.46;99998.56;105131;1271;73428;-75
2022/08/02 04:26:05;;;;;;;8.90;2.50;;;;;;;15.32;98.04;99996.94;105082;1271;67090;-74
2022/08/02 04:28:59;;;;;;;10.30;3.50;;;;;;;15.34;97.94;99997.63;105039;1274;71593;-75
2022/08/02 04:31:48;;;;;;;11.00;3.00;;;;;;;15.36;97.70;100001.34;105149;1271;59647;-74
2022/08/02 04:34:36;;;;;;;10.70;2.40;;;;;;;15.38;97.31;100005.68;104927;1272;61879;-75
2022/08/02 04:37:25;;;;;;;9.10;2.50;;;;;;;15.41;97.17;100009.67;104969;1271;74717;-76
2022/08/02 04:40:15;;;;;;;9.30;2.70;;;;;;;15.44;96.91;100013.59;105257;1271;68122;-74
2022/08/02 04:43:03;;;;;;;9.00;2.40;;;;;;;15.49;96.54;100014.77;105334;1271;72854;-76
2022/08/02 04:45:53;;;;;;;10.20;2.40;;;;;;;15.55;96.17;100017.23;104977;1271;59710;-74
2022/08/02 04:48:41;;;;;;;10.00;3.10;;;;;;;15.61;95.66;100016.04;105309;1271;60214;-76
2022/08/02 04:51:29;;;;;;;11.00;2.70;;;;;;;15.70;95.25;100015.72;104889;1273;72255;-76
2022/08/02 04:54:25;;;;;;;9.30;2.20;;;;;;;15.80;94.47;100020.76;105081;1273;67834;-73
2022/08/02 05:00:20;;;;;;;10.50;2.60;;;;;;;15.95;93.33;100022.67;105041;1271;59852;-75
2022/08/02 05:03:08;;;;;;;9.20;2.20;;;;;;;16.06;92.38;100023.29;105028;1271;60090;-76
2022/08/02 05:05:59;;;;;;;8.20;2.20;;;;;;;16.14;91.48;100028.98;104915;1272;73305;-73
2022/08/02 05:08:48;;;;;;;7.70;2.60;;;;;;;16.22;90.61;100031.63;105080;1271;67866;-75
2022/08/02 05:11:39;;;;;;;8.90;2.20;;;;;;;16.35;89.87;100035.85;105210;1271;72843;-75
2022/08/02 05:14:27;;;;;;;9.50;2.00;;;;;;;16.53;88.32;100033.88;105177;1271;61056;-74
2022/08/02 05:17:15;;;;;;;7.40;1.90;;;;;;;16.77;85.86;100036.36;105043;1271;60696;-74
2022/08/02 05:20:05;;;;;;;10.20;2.30;;;;;;;17.32;83.43;100034.35;104987;1271;71978;-74
2022/08/02 05:22:53;;;;;;;9.10;2.70;;;;;;;18.52;80.11;100036.63;105038;1271;70237;-75
2022/08/02 05:25:41;;;;;;;8.80;2.10;;;;;;;20.01;71.48;100041.64;105032;1271;388868;-74
2022/08/02 05:28:29;;;;;;;7.30;1.90;;;;;;;21.37;67.53;100043.84;105055;1271;59645;-73
2022/08/02 05:31:18;;;;;;;9.30;1.80;;;;;;;22.74;61.21;100043.39;105145;1271;59717;-75
2022/08/02 05:34:07;;;;;;;8.90;1.90;;;;;;;23.85;57.02;100039.66;105237;1271;75022;-75
2022/08/02 05:36:58;;;;;;;8.40;1.60;;;;;;;24.65;52.95;100038.15;105055;1274;66746;-74
2022/08/02 05:39:47;;;;;;;9.00;1.60;;;;;;;25.49;50.05;100032.52;105391;1271;72921;-75
2022/08/02 05:42:44;;;;;;;8.40;1.50;;;;;;;26.54;48.47;100030.63;105178;1271;60361;-72
2022/08/02 05:45:33;;;;;;;8.20;1.70;;;;;;;27.29;43.42;100028.37;104892;1274;60585;-72
2022/08/02 05:48:22;;;;;;;8.50;1.50;;;;;;;27.84;40.36;100031.48;105084;1271;73212;-73
2022/08/02 05:51:42;;;;;;;9.20;1.40;;;;;;;28.24;39.12;100030.80;105284;1271;67327;-74
2022/08/02 05:54:52;;;;;;;7.50;1.60;;;;;;;28.55;36.88;100032.11;105285;1271;72902;-75
2022/08/02 05:58:05;;;;;;;6.60;1.10;;;;;;;29.14;36.60;100029.67;105005;1271;59664;-74
2022/08/02 06:00:55;;;;;;;10.00;1.30;;;;;;;29.67;35.19;100030.52;105110;1271;60791;-79
2022/08/02 06:03:51;;;;;;;9.40;1.30;;;;;;;29.98;33.11;100032.12;105031;1271;74839;-76
2022/08/02 06:06:43;;;;;;;9.00;1.40;;;;;;;30.26;31.71;100030.10;105219;1271;69661;-78
2022/08/02 06:09:32;;;;;;;11.40;1.40;;;;;;;30.59;31.82;100035.55;104928;1276;72145;-77
2022/08/02 06:12:28;;;;;;;8.80;1.50;;;;;;;30.94;31.24;100030.92;104910;1271;59647;-76
2022/08/02 06:15:18;;;;;;;7.70;1.30;;;;;;;31.05;30.79;100031.95;104987;1274;61945;-74
2022/08/02 06:18:07;;;;;;;12.00;1.40;;;;;;;31.29;30.37;100034.16;105045;1274;74294;-75
2022/08/02 06:21:00;;;;;;;6.90;1.50;;;;;;;31.61;30.33;100033.08;104945;1274;67858;-77
2022/08/02 06:24:11;;;;;;;8.30;1.10;;;;;;;32.02;28.36;100033.90;105372;1274;72906;-79
2022/08/02 06:27:01;;;;;;;6.50;0.90;;;;;;;32.23;27.31;100035.58;105177;1274;59787;-77
2022/08/02 06:29:49;;;;;;;9.00;1.10;;;;;;;32.27;27.13;100039.52;105133;1274;60522;-76
2022/08/02 06:32:37;;;;;;;7.30;1.10;;;;;;;32.48;26.32;100035.52;104883;1275;73339;-75
2022/08/02 06:35:45;;;;;;;7.70;1.10;;;;;;;32.60;26.07;100040.38;105174;1274;66517;-75
2022/08/02 06:38:40;;;;;;;9.40;1.30;;;;;;;32.76;25.25;100040.51;105159;1274;72994;-77
2022/08/02 06:41:41;;;;;;;6.80;1.40;;;;;;;32.69;24.24;100036.93;104909;1274;59685;-77
2022/08/02 06:44:42;;;;;;;17.50;10.90;;;;;;;32.58;24.30;100034.98;105154;1274;61041;-75
2022/08/02 06:47:36;;;;;;;9.60;3.60;;;;;;;32.88;23.88;100034.70;105215;1274;71972;-77
2022/08/02 06:50:24;;;;;;;7.80;1.40;;;;;;;33.24;23.01;100042.24;105345;1274;66907;-77
2022/08/02 06:53:13;;;;;;;6.40;1.20;;;;;;;33.61;22.94;100046.70;105120;1273;72969;-75
2022/08/02 06:56:02;;;;;;;8.60;1.10;;;;;;;33.80;22.28;100048.75;104960;1274;60057;-75
2022/08/02 06:58:54;;;;;;;7.70;1.00;;;;;;;34.02;21.81;100049.48;105209;1274;59861;-76
2022/08/02 07:01:42;;;;;;;6.70;0.90;;;;;;;33.37;22.59;100055.63;104981;1274;74760;-76
2022/08/02 07:04:32;;;;;;;8.70;1.90;;;;;;;32.94;23.08;100057.95;105060;1274;68066;-77
2022/08/02 07:07:21;;;;;;;11.30;2.30;;;;;;;33.19;22.42;100064.21;105011;1274;70592;-75
2022/08/02 07:10:09;;;;;;;7.10;1.70;;;;;;;33.37;22.31;100060.73;105054;1274;59668;-77
2022/08/02 07:12:57;;;;;;;7.30;1.40;;;;;;;33.92;22.01;100057.68;105753;1272;60348;-77
2022/08/02 07:15:46;;;;;;;8.90;1.80;;;;;;;34.40;21.68;100060.41;105084;1274;73161;-77
2022/08/02 07:18:36;;;;;;;7.40;1.20;;;;;;;34.66;21.34;100063.17;105276;1271;68046;-78
2022/08/02 07:21:26;;;;;;;6.80;1.40;;;;;;;34.76;20.94;100065.30;105171;1271;74520;-79
2022/08/02 07:24:34;;;;;;;8.00;1.30;;;;;;;34.66;21.14;100065.44;105144;1271;59766;-80
2022/08/02 07:27:24;;;;;;;8.70;1.20;;;;;;;34.89;20.94;100066.79;104994;1271;59702;-78
2022/08/02 07:30:12;;;;;;;8.80;1.60;;;;;;;34.78;21.29;100073.54;105067;1271;73314;-76
2022/08/02 07:33:00;;;;;;;7.50;1.10;;;;;;;34.68;21.32;100076.43;105145;1274;66788;-77
2022/08/02 07:35:48;;;;;;;9.40;1.20;;;;;;;34.48;20.99;100080.43;105157;1271;74937;-78
2022/08/02 07:38:38;;;;;;;8.20;1.00;;;;;;;34.05;21.39;100085.73;106347;1271;59688;-77
2022/08/02 07:41:28;;;;;;;7.90;1.20;;;;;;;33.80;21.78;100079.03;107383;1271;60952;-77
2022/08/02 07:44:18;;;;;;;5.80;1.10;;;;;;;33.35;22.44;100079.30;105549;1271;72840;-79
2022/08/02 07:47:05;;;;;;;7.90;1.10;;;;;;;33.07;23.28;100076.80;105421;1271;69332;-78
2022/08/02 07:49:53;;;;;;;8.00;1.10;;;;;;;33.29;23.37;100075.96;105099;1271;72720;-75
2022/08/02 07:52:43;;;;;;;9.20;1.30;;;;;;;33.90;22.58;100074.91;104997;1274;59663;-78
2022/08/02 07:55:31;;;;;;;8.10;1.30;;;;;;;34.38;22.34;100066.93;105341;1271;60214;-78
2022/08/02 07:58:27;;;;;;;10.10;1.40;;;;;;;34.76;21.91;100068.19;105206;1271;74170;-80
2022/08/02 08:01:15;;;;;;;6.00;1.00;;;;;;;34.59;21.64;100064.45;105279;1271;67846;-79
2022/08/02 08:04:04;;;;;;;8.90;1.30;;;;;;;34.72;21.34;100064.43;105282;1271;71802;-79
2022/08/02 08:06:52;;;;;;;8.60;1.20;;;;;;;34.88;20.90;100074.02;105245;1271;59816;-79
2022/08/02 08:09:40;;;;;;;10.70;1.30;;;;;;;34.85;20.65;100074.31;105386;1271;60635;-78
2022/08/02 08:12:29;;;;;;;7.80;1.20;;;;;;;34.77;20.20;100072.59;105078;1271;73237;-82
2022/08/02 08:15:17;;;;;;;9.30;2.40;;;;;;;34.78;20.38;100074.47;105273;1271;68628;-78
2022/08/02 08:18:05;;;;;;;7.60;1.80;;;;;;;34.70;20.56;100082.23;105077;1271;72914;-78
2022/08/02 08:20:53;;;;;;;8.60;1.30;;;;;;;34.55;20.88;100077.01;105157;1274;59716;-80
2022/08/02 08:23:41;;;;;;;11.60;1.70;;;;;;;34.52;21.04;100073.81;105162;1271;60278;-81
2022/08/02 08:26:29;;;;;;;7.20;1.20;;;;;;;34.25;21.14;100087.20;105111;1271;72258;-81
2022/08/02 08:29:18;;;;;;;8.00;1.30;;;;;;;34.23;20.89;100085.30;105068;1271;66479;-80
2022/08/02 08:32:07;;;;;;;7.10;1.10;;;;;;;34.49;20.88;100077.85;105020;1272;71570;-79
2022/08/02 08:35:02;;;;;;;7.70;1.30;;;;;;;34.96;20.04;100081.80;105191;1271;59601;-77
2022/08/02 08:37:51;;;;;;;7.10;1.00;;;;;;;35.27;19.03;100082.34;105313;1271;60797;-79
2022/08/02 08:40:40;;;;;;;6.40;1.00;;;;;;;35.59;18.92;100083.30;105319;1271;71975;-78
2022/08/02 08:43:29;;;;;;;9.50;1.00;;;;;;;35.93;18.35;100085.08;106137;1271;67852;-80
2022/08/02 08:46:27;;;;;;;7.40;1.00;;;;;;;36.20;18.28;100085.03;105071;1271;72255;-80
2022/08/02 08:49:30;;;;;;;7.50;1.20;;;;;;;36.34;18.30;100082.32;105083;1271;60130;-78
2022/08/02 08:52:22;;;;;;;6.80;1.10;;;;;;;36.61;18.03;100081.94;105568;1271;60969;-78
2022/08/02 08:55:12;;;;;;;7.20;1.00;;;;;;;36.70;17.84;100081.90;105630;1271;72099;-79
2022/08/02 08:58:02;;;;;;;4.90;0.70;;;;;;;36.66;15.90;100078.29;105273;1274;68114;-77
2022/08/02 09:00:50;;;;;;;6.30;1.30;;;;;;;36.93;15.95;100074.95;105107;1271;72556;-80
2022/08/02 09:03:38;;;;;;;6.60;0.90;;;;;;;36.84;16.91;100082.70;105440;1271;59684;-76
2022/08/02 09:06:27;;;;;;;8.40;1.10;;;;;;;36.03;18.25;100087.61;105912;1271;62001;-78
2022/08/02 09:09:16;;;;;;;6.60;1.10;;;;;;;35.58;18.16;100091.42;105888;1271;72131;-77
2022/08/02 09:12:20;;;;;;;7.90;1.20;;;;;;;34.92;18.70;100089.44;105733;1273;67529;-78
2022/08/02 09:15:10;;;;;;;6.60;1.00;;;;;;;34.55;19.49;100085.52;105446;1272;74506;-74
2022/08/02 09:18:05;;;;;;;6.50;1.00;;;;;;;34.82;19.63;100091.11;105771;1272;59713;-76
2022/08/02 09:21:04;;;;;;;11.10;1.20;;;;;;;35.30;18.66;100089.30;105910;1274;61618;-76
2022/08/02 09:23:54;;;;;;;7.40;1.20;;;;;;;35.42;17.91;100095.84;105846;1274;72417;-74
2022/08/02 09:26:42;;;;;;;8.90;1.00;;;;;;;35.37;18.06;100096.91;106360;1271;69614;-79
2022/08/02 09:29:31;;;;;;;6.30;1.00;;;;;;;35.22;17.59;100091.59;106071;1271;71442;-76
2022/08/02 09:32:19;;;;;;;7.70;1.20;;;;;;;34.80;17.84;100089.89;105533;1271;59679;-74
2022/08/02 09:35:09;;;;;;;8.00;1.30;;;;;;;34.15;19.13;100097.73;105350;1273;61001;-75
2022/08/02 09:38:13;;;;;;;8.40;1.10;;;;;;;33.82;19.68;100095.88;105233;1271;74792;-74
2022/08/02 09:41:04;;;;;;;6.70;1.10;;;;;;;33.42;19.79;100096.14;105351;1271;67785;-76
2022/08/02 09:43:54;;;;;;;10.00;1.10;;;;;;;33.46;20.17;100098.14;105167;1271;71780;-77
2022/08/02 09:46:52;;;;;;;6.60;1.00;;;;;;;34.08;19.89;100108.55;105234;1271;59832;-71
2022/08/02 09:49:46;;;;;;;7.70;1.20;;;;;;;34.54;18.78;100106.73;105429;1271;60498;-74
2022/08/02 09:52:42;;;;;;;6.30;0.90;;;;;;;34.14;19.04;100104.80;105100;1271;73278;-73
2022/08/02 09:55:31;;;;;;;6.40;0.90;;;;;;;33.01;19.86;100095.51;105016;1271;66799;-74
2022/08/02 09:58:20;;;;;;;6.20;0.80;;;;;;;32.67;20.57;100098.43;105170;1271;72938;-74
2022/08/02 10:01:09;;;;;;;7.00;1.00;;;;;;;33.32;20.49;100095.38;105001;1273;59679;-76
2022/08/02 10:04:05;;;;;;;7.90;1.60;;;;;;;34.22;19.77;100092.92;105162;1274;59531;-76
2022/08/02 10:06:53;;;;;;;8.20;1.40;;;;;;;34.93;18.90;100081.80;104966;1274;73015;-78
2022/08/02 10:09:44;;;;;;;6.70;1.70;;;;;;;35.34;18.55;100076.56;105075;1271;66763;-77
2022/08/02 10:12:36;;;;;;;8.10;0.90;;;;;;;35.21;18.46;100073.78;105114;1271;71392;-75
2022/08/02 10:15:24;;;;;;;7.00;1.00;;;;;;;34.93;18.83;100072.06;105037;1271;59843;-79
2022/08/02 10:18:14;;;;;;;6.30;0.90;;;;;;;34.91;18.69;100069.97;105174;1271;61318;-75
2022/08/02 10:21:34;;;;;;;7.50;1.30;;;;;;;35.40;18.27;100063.53;105493;1271;71917;-78
2022/08/02 10:24:32;;;;;;;6.50;1.40;;;;;;;36.09;17.93;100054.55;105209;1271;68035;-77
2022/08/02 10:27:20;;;;;;;12.10;6.80;;;;;;;36.36;17.32;100053.27;105000;1274;74472;-74
2022/08/02 10:30:09;;;;;;;7.00;2.10;;;;;;;36.62;17.00;100065.41;105050;1271;59689;-76
2022/08/02 10:33:01;;;;;;;5.80;1.00;;;;;;;36.76;16.74;100065.48;105167;1271;60603;-74
2022/08/02 10:35:52;;;;;;;6.10;1.20;;;;;;;36.19;16.97;100062.71;105666;1271;74322;-76
2022/08/02 10:38:57;;;;;;;8.50;1.50;;;;;;;35.03;18.17;100067.60;105227;1271;68582;-76
2022/08/02 10:41:51;;;;;;;7.50;0.90;;;;;;;34.50;18.53;100068.56;105058;1271;72942;-77
2022/08/02 10:44:41;;;;;;;6.70;1.00;;;;;;;34.39;18.80;100066.77;105392;1271;59666;-77
2022/08/02 10:47:29;;;;;;;7.20;1.00;;;;;;;34.03;19.05;100069.84;105672;1271;61393;-76
2022/08/02 10:50:17;;;;;;;7.30;0.90;;;;;;;33.50;19.45;100067.54;105528;1271;71967;-76
2022/08/02 10:53:29;;;;;;;8.00;1.10;;;;;;;33.18;20.16;100070.29;105190;1274;68001;-75
2022/08/02 10:56:47;;;;;;;6.50;1.20;;;;;;;33.33;20.29;100069.15;105593;1271;70289;-76
2022/08/02 10:59:37;;;;;;;6.80;1.30;;;;;;;33.25;20.08;100060.95;105154;1271;59787;-77
2022/08/02 11:02:47;;;;;;;7.90;1.00;;;;;;;33.64;19.63;100057.70;105118;1271;59553;-78
2022/08/02 11:05:40;;;;;;;9.70;1.10;;;;;;;33.67;19.35;100061.84;106196;1271;74454;-79
2022/08/02 11:08:31;;;;;;;6.90;1.10;;;;;;;34.40;18.92;100057.55;106655;1271;68571;-79
2022/08/02 11:11:19;;;;;;;6.50;1.00;;;;;;;35.03;18.37;100053.13;106814;1271;71997;-79
2022/08/02 11:14:28;;;;;;;8.00;1.00;;;;;;;35.79;17.93;100058.32;107056;1271;59627;-79
2022/08/02 11:17:19;;;;;;;12.60;7.30;;;;;;;36.23;16.80;100058.91;107210;1271;60345;-79
2022/08/02 11:20:10;;;;;;;9.60;1.50;;;;;;;36.31;16.96;100056.64;107450;1271;73310;-80
2022/08/02 11:23:37;;;;;;;8.10;1.30;;;;;;;35.35;17.47;100055.45;106877;1273;68139;-79
2022/08/02 11:26:32;;;;;;;7.10;1.20;;;;;;;34.03;19.09;100052.66;107363;1271;71630;-80
2022/08/02 11:29:20;;;;;;;6.50;1.00;;;;;;;33.16;19.65;100057.66;106979;1273;59627;-79
2022/08/02 11:32:17;;;;;;;7.80;1.50;;;;;;;32.35;20.81;100054.80;107521;1271;59769;-81
2022/08/02 11:35:07;;;;;;;6.60;1.30;;;;;;;31.97;21.59;100057.18;107014;1273;72016;-80
2022/08/02 11:37:58;;;;;;;9.00;2.40;;;;;;;31.94;21.67;100060.09;106876;1271;66475;-80
2022/08/02 11:40:49;;;;;;;7.60;1.30;;;;;;;31.88;22.37;100071.85;106988;1271;71506;-80
2022/08/02 11:43:44;;;;;;;9.30;1.20;;;;;;;31.55;23.54;100065.39;106708;1271;58354;-78
2022/08/02 11:46:33;;;;;;;8.00;1.50;;;;;;;31.26;26.41;100065.35;105598;1271;60655;-80
2022/08/02 11:49:20;;;;;;;8.30;1.30;;;;;;;31.21;27.71;100070.46;106400;1271;73392;-80
2022/08/02 11:52:09;;;;;;;9.00;1.30;;;;;;;31.15;27.69;100068.25;106807;1271;68050;-81
2022/08/02 11:54:58;;;;;;;9.50;1.50;;;;;;;30.97;28.08;100064.33;106490;1271;70545;-80
2022/08/02 11:57:47;;;;;;;8.60;1.40;;;;;;;30.50;28.62;100068.58;107341;1271;59522;-81
2022/08/02 12:00:52;;;;;;;10.20;1.70;;;;;;;29.83;30.24;100081.61;107503;1271;59448;-80
2022/08/02 12:03:40;;;;;;;7.00;1.30;;;;;;;29.29;31.53;100089.60;107156;1271;73816;-80
2022/08/02 12:06:30;;;;;;;9.60;2.50;;;;;;;28.81;32.64;100097.60;107449;1271;67819;-79
2022/08/02 12:09:18;;;;;;;11.60;3.70;;;;;;;28.44;33.35;100091.41;107286;1271;71592;-80
2022/08/02 12:12:06;;;;;;;9.00;1.30;;;;;;;28.23;33.83;100088.55;106780;1271;59675;-80
2022/08/02 12:14:54;;;;;;;7.30;1.10;;;;;;;28.12;34.20;100088.70;106874;1271;59595;-80
2022/08/02 12:20:53;;;;;;;9.30;1.50;;;;;;;27.52;35.30;100086.71;105697;1271;66861;-79
2022/08/02 12:23:44;;;;;;;8.80;1.40;;;;;;;27.18;36.15;100088.79;105871;1271;73430;-80
2022/08/02 12:26:50;;;;;;;10.60;1.80;;;;;;;26.95;36.55;100090.23;106838;1271;59538;-80
2022/08/02 12:29:41;;;;;;;9.70;1.60;;;;;;;26.76;36.48;100098.41;105769;1271;59669;-79
2022/08/02 12:32:46;;;;;;;11.30;1.80;;;;;;;26.51;36.78;100091.40;106520;1271;73278;-80
2022/08/02 12:35:34;;;;;;;8.50;1.40;;;;;;;26.14;37.40;100093.23;106356;1272;66583;-81
2022/08/02 12:38:22;;;;;;;11.30;1.40;;;;;;;25.78;38.09;100094.14;106487;1271;71594;-79
2022/08/02 12:41:12;;;;;;;11.40;1.90;;;;;;;25.50;39.01;100101.38;106661;1271;59749;-82
2022/08/02 12:44:18;;;;;;;8.10;1.20;;;;;;;25.32;39.50;100105.83;106001;1271;60613;-79
2022/08/02 12:47:10;;;;;;;11.50;1.80;;;;;;;25.22;39.69;100109.13;106111;1271;71978;-82
2022/08/02 12:50:20;;;;;;;7.20;1.30;;;;;;;25.18;40.16;100106.08;106777;1271;68585;-77
2022/08/02 12:53:16;;;;;;;8.90;1.50;;;;;;;25.22;40.31;100102.17;107171;1271;73084;-80
2022/08/02 12:56:04;;;;;;;9.30;1.50;;;;;;;25.22;40.41;100107.15;107026;1271;59771;-77
2022/08/02 12:58:52;;;;;;;8.60;1.10;;;;;;;25.23;40.47;100108.24;106902;1273;59564;-79
2022/08/02 13:01:41;;;;;;;8.10;1.40;;;;;;;25.20;40.61;100106.12;106464;1271;71932;-80
2022/08/02 13:04:29;;;;;;;12.20;1.60;;;;;;;25.25;40.72;100105.05;107433;1271;68176;-80
2022/08/02 13:07:18;;;;;;;9.90;2.20;;;;;;;25.24;40.32;100104.93;106710;1271;71887;-80
2022/08/02 13:10:06;;;;;;;8.60;1.30;;;;;;;25.25;40.26;100100.86;105614;1273;59731;-79
2022/08/02 13:12:54;;;;;;;7.90;1.50;;;;;;;25.31;40.04;100107.42;105982;1271;61139;-79
2022/08/02 13:15:42;;;;;;;10.90;1.60;;;;;;;25.31;39.84;100109.98;106089;1271;73643;-79
2022/08/02 13:18:38;;;;;;;8.70;1.60;;;;;;;25.29;39.70;100101.33;106397;1271;69527;-79
2022/08/02 13:21:26;;;;;;;7.30;1.60;;;;;;;25.39;39.57;100103.10;107218;1271;72781;-79
2022/08/02 13:24:35;;;;;;;12.10;1.60;;;;;;;25.29;39.32;100098.00;106630;1271;59771;-79
2022/08/02 13:27:41;;;;;;;11.80;4.00;;;;;;;25.19;39.57;100099.88;105532;1271;60586;-77
2022/08/02 13:30:29;;;;;;;8.20;2.00;;;;;;;25.15;39.71;100097.41;105705;1271;71682;-78